Westhampton, NY (11977)

1:52 PM EDT on April 26, 2017 (GMT -0400)
56 South Country Road | | Change Station

Elev 32 ft 40.83 °N, 72.63 °W | Updated 0 second ago

Overcast
Overcast
58.3 °F
Feels Like 58.3 °F
N
3.0
Wind Variable Wind from NE
Gusts 9.0 mph

Today
High -- | Low -- °F
--% Chance of Precip.
Yesterday
High -- | Low -- °F
Precip. -- in
Pressure 29.78 in
Visibility 1.5 miles
Clouds Overcast 200 ft
Dew Point 58 °F
Humidity 100%
Rainfall 0.25 in
Snow Depth Not available.
5:55 AM 7:42 PM
New Moon, 0% visible
SPECI KFOK 261738Z 04009KT 1 1/2SM BR OVC002 14/13 A2978 RMK AO2 T01390128
Pressure 29.78 in
Visibility 1.5 miles
Clouds Overcast 200 ft
Dew Point 58 °F
Humidity 100%
Rainfall 0.25 in
Snow Depth Not available.
5:55 AM 7:42 PM
New Moon, 0% visible
SPECI KFOK 261738Z 04009KT 1 1/2SM BR OVC002 14/13 A2978 RMK AO2 T01390128

Get Severe Weather Alerts

Thanks for signing up!

Be on the lookout for a verification email in your inbox.

You'll start receiving the daily forecast at 8 AM.

×

10-Day Weather Forecast

Almanac

Astronomy

Apr. 26, 2017 Rise Set
Actual Time
Civil Twilight
Nautical Twilight
Astronomical Twilight
Moon
Length of Visible Light
Length of Day
Tomorrow will be .
, % of the Moon is Illuminated

Today's Extremes

State Highs State Lows

Community

WunderPhotos

WunderBlog® & News

Nearby

Air Quality

  Air Quality AQ Index Pollutant
Not available.

Snow Depth

Station Depth Elevation

Earthquake Activity

City Distance Mag. Time & Date
Minimum magnitude displayed is 2.5.

Coastal Water Temperatures

Place Temperature

Stations

Nearby Weather Stations

Station Location Temp. Windchill Dew Point Humidity Wind Precip. Elev Updated Type
                   

Watches & Warnings

There are currently no watches in effect.